sensor_id;sensor_type;location;lat;lon;timestamp;P1;durP1;ratioP1;P2;durP2;ratioP2
22768;SDS011;13001;51.968;5.918;2023-09-19T00:00:42;160.90;;;151.42;;
22768;SDS011;13001;51.968;5.918;2023-09-19T00:03:12;165.00;;;155.50;;
22768;SDS011;13001;51.968;5.918;2023-09-19T00:05:40;176.02;;;165.60;;
22768;SDS011;13001;51.968;5.918;2023-09-19T00:08:10;191.53;;;180.47;;
22768;SDS011;13001;51.968;5.918;2023-09-19T00:10:41;206.82;;;194.87;;
22768;SDS011;13001;51.968;5.918;2023-09-19T00:13:09;216.30;;;203.60;;
22768;SDS011;13001;51.968;5.918;2023-09-19T00:15:41;231.53;;;217.57;;
22768;SDS011;13001;51.968;5.918;2023-09-19T00:18:12;262.00;;;246.35;;
22768;SDS011;13001;51.968;5.918;2023-09-19T00:20:41;270.48;;;254.10;;
22768;SDS011;13001;51.968;5.918;2023-09-19T00:23:08;273.73;;;257.10;;
22768;SDS011;13001;51.968;5.918;2023-09-19T00:25:36;260.82;;;244.72;;
22768;SDS011;13001;51.968;5.918;2023-09-19T00:28:04;248.65;;;233.43;;
22768;SDS011;13001;51.968;5.918;2023-09-19T00:30:36;248.45;;;232.98;;
22768;SDS011;13001;51.968;5.918;2023-09-19T00:33:05;247.67;;;232.50;;
22768;SDS011;13001;51.968;5.918;2023-09-19T00:35:33;251.73;;;236.75;;
22768;SDS011;13001;51.968;5.918;2023-09-19T00:38:02;253.60;;;238.37;;
22768;SDS011;13001;51.968;5.918;2023-09-19T00:40:31;275.70;;;259.23;;
22768;SDS011;13001;51.968;5.918;2023-09-19T00:42:59;285.13;;;267.75;;
22768;SDS011;13001;51.968;5.918;2023-09-19T00:45:27;277.20;;;260.27;;
22768;SDS011;13001;51.968;5.918;2023-09-19T00:47:56;276.90;;;260.05;;
22768;SDS011;13001;51.968;5.918;2023-09-19T00:50:27;287.57;;;270.00;;
22768;SDS011;13001;51.968;5.918;2023-09-19T00:52:55;288.12;;;270.60;;
22768;SDS011;13001;51.968;5.918;2023-09-19T00:55:23;285.90;;;268.27;;
22768;SDS011;13001;51.968;5.918;2023-09-19T00:57:51;283.23;;;265.93;;
22768;SDS011;13001;51.968;5.918;2023-09-19T01:00:20;288.17;;;270.47;;
22768;SDS011;13001;51.968;5.918;2023-09-19T01:02:49;286.23;;;268.87;;
22768;SDS011;13001;51.968;5.918;2023-09-19T01:05:16;280.00;;;262.85;;
22768;SDS011;13001;51.968;5.918;2023-09-19T01:07:44;272.77;;;256.43;;
22768;SDS011;13001;51.968;5.918;2023-09-19T01:10:16;277.27;;;260.63;;
22768;SDS011;13001;51.968;5.918;2023-09-19T01:12:59;267.70;;;251.52;;
22768;SDS011;13001;51.968;5.918;2023-09-19T01:15:47;272.35;;;255.55;;
22768;SDS011;13001;51.968;5.918;2023-09-19T01:26:54;272.98;;;256.27;;
22768;SDS011;13001;51.968;5.918;2023-09-19T01:32:08;284.60;;;267.20;;
22768;SDS011;13001;51.968;5.918;2023-09-19T01:34:44;282.27;;;264.80;;
22768;SDS011;13001;51.968;5.918;2023-09-19T01:37:14;277.75;;;260.50;;
22768;SDS011;13001;51.968;5.918;2023-09-19T01:39:45;297.00;;;278.60;;
22768;SDS011;13001;51.968;5.918;2023-09-19T01:42:21;296.13;;;277.77;;
22768;SDS011;13001;51.968;5.918;2023-09-19T01:44:59;295.90;;;277.22;;
22768;SDS011;13001;51.968;5.918;2023-09-19T01:47:32;303.52;;;284.77;;
22768;SDS011;13001;51.968;5.918;2023-09-19T01:50:17;304.23;;;285.13;;
22768;SDS011;13001;51.968;5.918;2023-09-19T01:53:04;295.42;;;276.58;;
22768;SDS011;13001;51.968;5.918;2023-09-19T01:55:36;289.00;;;271.23;;
22768;SDS011;13001;51.968;5.918;2023-09-19T01:58:07;272.93;;;256.05;;
22768;SDS011;13001;51.968;5.918;2023-09-19T02:00:37;235.88;;;221.30;;
22768;SDS011;13001;51.968;5.918;2023-09-19T02:03:06;228.22;;;214.23;;
22768;SDS011;13001;51.968;5.918;2023-09-19T02:05:35;221.53;;;208.05;;
22768;SDS011;13001;51.968;5.918;2023-09-19T02:08:02;218.35;;;204.45;;
22768;SDS011;13001;51.968;5.918;2023-09-19T02:10:30;178.42;;;167.62;;
22768;SDS011;13001;51.968;5.918;2023-09-19T02:12:58;174.65;;;163.92;;
22768;SDS011;13001;51.968;5.918;2023-09-19T02:15:26;168.13;;;157.77;;
22768;SDS011;13001;51.968;5.918;2023-09-19T02:17:53;154.60;;;144.90;;
22768;SDS011;13001;51.968;5.918;2023-09-19T02:20:22;155.72;;;146.05;;
22768;SDS011;13001;51.968;5.918;2023-09-19T02:22:50;160.12;;;150.18;;
22768;SDS011;13001;51.968;5.918;2023-09-19T02:25:18;158.72;;;149.10;;
22768;SDS011;13001;51.968;5.918;2023-09-19T02:27:45;152.50;;;142.80;;
22768;SDS011;13001;51.968;5.918;2023-09-19T02:30:13;151.57;;;142.35;;
22768;SDS011;13001;51.968;5.918;2023-09-19T02:32:41;151.78;;;142.40;;
22768;SDS011;13001;51.968;5.918;2023-09-19T02:35:09;159.93;;;149.93;;
22768;SDS011;13001;51.968;5.918;2023-09-19T02:37:36;160.67;;;150.60;;
22768;SDS011;13001;51.968;5.918;2023-09-19T02:40:04;163.75;;;153.65;;
22768;SDS011;13001;51.968;5.918;2023-09-19T02:42:36;168.17;;;157.70;;
22768;SDS011;13001;51.968;5.918;2023-09-19T02:45:04;172.13;;;161.28;;
22768;SDS011;13001;51.968;5.918;2023-09-19T02:47:32;192.03;;;180.40;;
22768;SDS011;13001;51.968;5.918;2023-09-19T02:50:00;183.70;;;171.95;;
22768;SDS011;13001;51.968;5.918;2023-09-19T02:52:28;193.00;;;180.93;;
22768;SDS011;13001;51.968;5.918;2023-09-19T02:54:55;185.05;;;173.68;;
22768;SDS011;13001;51.968;5.918;2023-09-19T02:57:23;181.02;;;169.72;;
22768;SDS011;13001;51.968;5.918;2023-09-19T02:59:50;197.60;;;185.40;;
22768;SDS011;13001;51.968;5.918;2023-09-19T03:02:18;218.73;;;205.57;;
22768;SDS011;13001;51.968;5.918;2023-09-19T03:04:45;228.13;;;214.67;;
22768;SDS011;13001;51.968;5.918;2023-09-19T03:07:14;247.65;;;232.92;;
22768;SDS011;13001;51.968;5.918;2023-09-19T03:09:45;241.97;;;227.73;;
22768;SDS011;13001;51.968;5.918;2023-09-19T03:12:18;244.70;;;230.25;;
22768;SDS011;13001;51.968;5.918;2023-09-19T03:14:46;243.75;;;229.07;;
22768;SDS011;13001;51.968;5.918;2023-09-19T03:17:16;259.40;;;243.97;;
22768;SDS011;13001;51.968;5.918;2023-09-19T03:19:45;247.93;;;233.27;;
22768;SDS011;13001;51.968;5.918;2023-09-19T03:22:14;253.25;;;238.45;;
22768;SDS011;13001;51.968;5.918;2023-09-19T03:24:42;248.70;;;233.82;;
22768;SDS011;13001;51.968;5.918;2023-09-19T03:27:10;258.05;;;242.97;;
22768;SDS011;13001;51.968;5.918;2023-09-19T03:29:39;258.00;;;242.95;;
22768;SDS011;13001;51.968;5.918;2023-09-19T03:32:07;248.82;;;234.55;;
22768;SDS011;13001;51.968;5.918;2023-09-19T03:34:36;258.97;;;243.67;;
22768;SDS011;13001;51.968;5.918;2023-09-19T03:37:06;255.60;;;240.80;;
22768;SDS011;13001;51.968;5.918;2023-09-19T03:39:34;243.70;;;228.62;;
22768;SDS011;13001;51.968;5.918;2023-09-19T03:42:02;246.68;;;232.10;;
22768;SDS011;13001;51.968;5.918;2023-09-19T03:44:30;235.93;;;222.05;;
22768;SDS011;13001;51.968;5.918;2023-09-19T03:46:57;244.57;;;229.85;;
22768;SDS011;13001;51.968;5.918;2023-09-19T03:49:25;235.13;;;221.30;;
22768;SDS011;13001;51.968;5.918;2023-09-19T03:51:52;249.20;;;234.50;;
22768;SDS011;13001;51.968;5.918;2023-09-19T03:54:20;224.27;;;210.38;;
22768;SDS011;13001;51.968;5.918;2023-09-19T03:56:47;240.55;;;226.22;;
22768;SDS011;13001;51.968;5.918;2023-09-19T03:59:16;215.82;;;202.90;;
22768;SDS011;13001;51.968;5.918;2023-09-19T04:01:44;233.93;;;220.20;;
22768;SDS011;13001;51.968;5.918;2023-09-19T04:04:12;223.80;;;210.35;;
22768;SDS011;13001;51.968;5.918;2023-09-19T04:06:40;226.62;;;212.90;;
22768;SDS011;13001;51.968;5.918;2023-09-19T04:09:08;212.78;;;200.18;;
22768;SDS011;13001;51.968;5.918;2023-09-19T04:11:35;206.35;;;194.05;;
22768;SDS011;13001;51.968;5.918;2023-09-19T04:14:03;191.68;;;179.78;;
22768;SDS011;13001;51.968;5.918;2023-09-19T04:16:30;212.42;;;199.68;;
22768;SDS011;13001;51.968;5.918;2023-09-19T04:18:58;216.73;;;203.90;;
22768;SDS011;13001;51.968;5.918;2023-09-19T04:21:25;195.68;;;183.70;;
22768;SDS011;13001;51.968;5.918;2023-09-19T04:23:54;201.35;;;188.97;;
22768;SDS011;13001;51.968;5.918;2023-09-19T04:26:21;207.40;;;194.80;;
22768;SDS011;13001;51.968;5.918;2023-09-19T04:28:49;211.40;;;198.25;;
22768;SDS011;13001;51.968;5.918;2023-09-19T04:31:17;208.05;;;195.43;;
22768;SDS011;13001;51.968;5.918;2023-09-19T04:33:46;203.27;;;191.03;;
22768;SDS011;13001;51.968;5.918;2023-09-19T04:36:13;197.32;;;185.35;;
22768;SDS011;13001;51.968;5.918;2023-09-19T04:38:41;201.73;;;189.37;;
22768;SDS011;13001;51.968;5.918;2023-09-19T04:41:10;185.67;;;174.12;;
22768;SDS011;13001;51.968;5.918;2023-09-19T04:43:37;171.18;;;160.45;;
22768;SDS011;13001;51.968;5.918;2023-09-19T04:46:05;172.93;;;162.25;;
22768;SDS011;13001;51.968;5.918;2023-09-19T04:48:33;149.45;;;140.05;;
22768;SDS011;13001;51.968;5.918;2023-09-19T04:51:01;146.15;;;137.18;;
22768;SDS011;13001;51.968;5.918;2023-09-19T04:53:28;130.43;;;122.03;;
22768;SDS011;13001;51.968;5.918;2023-09-19T04:55:56;141.77;;;132.80;;
22768;SDS011;13001;51.968;5.918;2023-09-19T04:58:25;144.37;;;135.05;;
22768;SDS011;13001;51.968;5.918;2023-09-19T05:00:52;148.50;;;139.18;;
22768;SDS011;13001;51.968;5.918;2023-09-19T05:03:20;145.00;;;135.82;;
22768;SDS011;13001;51.968;5.918;2023-09-19T05:05:48;148.63;;;139.47;;
22768;SDS011;13001;51.968;5.918;2023-09-19T05:08:15;169.40;;;159.00;;
22768;SDS011;13001;51.968;5.918;2023-09-19T05:10:44;170.73;;;160.53;;
22768;SDS011;13001;51.968;5.918;2023-09-19T05:13:12;179.75;;;168.70;;
22768;SDS011;13001;51.968;5.918;2023-09-19T05:15:39;180.18;;;169.40;;
22768;SDS011;13001;51.968;5.918;2023-09-19T05:18:07;176.22;;;165.05;;
22768;SDS011;13001;51.968;5.918;2023-09-19T05:20:34;174.23;;;163.72;;
22768;SDS011;13001;51.968;5.918;2023-09-19T05:23:04;173.30;;;162.83;;
22768;SDS011;13001;51.968;5.918;2023-09-19T05:25:37;166.35;;;156.35;;
22768;SDS011;13001;51.968;5.918;2023-09-19T05:28:09;174.53;;;164.00;;
22768;SDS011;13001;51.968;5.918;2023-09-19T05:30:38;162.00;;;151.75;;
22768;SDS011;13001;51.968;5.918;2023-09-19T05:33:10;159.87;;;150.03;;
22768;SDS011;13001;51.968;5.918;2023-09-19T05:35:39;144.33;;;135.37;;
22768;SDS011;13001;51.968;5.918;2023-09-19T05:38:07;134.72;;;126.47;;
22768;SDS011;13001;51.968;5.918;2023-09-19T05:40:35;126.70;;;118.90;;
22768;SDS011;13001;51.968;5.918;2023-09-19T05:43:04;114.10;;;106.80;;
22768;SDS011;13001;51.968;5.918;2023-09-19T05:45:32;120.05;;;112.55;;
22768;SDS011;13001;51.968;5.918;2023-09-19T05:48:14;102.42;;;95.65;;
22768;SDS011;13001;51.968;5.918;2023-09-19T05:50:40;56.53;;;52.55;;
22768;SDS011;13001;51.968;5.918;2023-09-19T05:53:08;55.73;;;51.40;;
22768;SDS011;13001;51.968;5.918;2023-09-19T05:55:37;53.98;;;50.17;;
22768;SDS011;13001;51.968;5.918;2023-09-19T05:58:05;62.38;;;58.02;;
22768;SDS011;13001;51.968;5.918;2023-09-19T06:00:34;55.83;;;52.08;;
22768;SDS011;13001;51.968;5.918;2023-09-19T06:03:02;60.30;;;56.30;;
22768;SDS011;13001;51.968;5.918;2023-09-19T06:05:30;67.03;;;62.43;;
22768;SDS011;13001;51.968;5.918;2023-09-19T06:07:57;64.12;;;59.93;;
22768;SDS011;13001;51.968;5.918;2023-09-19T06:10:29;65.72;;;61.33;;
22768;SDS011;13001;51.968;5.918;2023-09-19T06:12:57;65.85;;;61.18;;
22768;SDS011;13001;51.968;5.918;2023-09-19T06:15:25;67.00;;;62.43;;
22768;SDS011;13001;51.968;5.918;2023-09-19T06:17:55;68.07;;;63.58;;
22768;SDS011;13001;51.968;5.918;2023-09-19T06:20:23;55.60;;;51.70;;
22768;SDS011;13001;51.968;5.918;2023-09-19T06:22:52;55.85;;;51.98;;
22768;SDS011;13001;51.968;5.918;2023-09-19T06:25:20;54.58;;;50.88;;
22768;SDS011;13001;51.968;5.918;2023-09-19T06:27:49;71.72;;;67.15;;
22768;SDS011;13001;51.968;5.918;2023-09-19T06:30:19;72.87;;;68.35;;
22768;SDS011;13001;51.968;5.918;2023-09-19T06:32:49;69.07;;;64.70;;
22768;SDS011;13001;51.968;5.918;2023-09-19T06:35:18;70.33;;;65.90;;
22768;SDS011;13001;51.968;5.918;2023-09-19T06:37:46;72.17;;;67.58;;
22768;SDS011;13001;51.968;5.918;2023-09-19T06:40:14;65.42;;;60.75;;
22768;SDS011;13001;51.968;5.918;2023-09-19T06:42:50;53.97;;;50.57;;
22768;SDS011;13001;51.968;5.918;2023-09-19T06:45:15;56.05;;;52.53;;
22768;SDS011;13001;51.968;5.918;2023-09-19T06:47:48;48.75;;;45.50;;
22768;SDS011;13001;51.968;5.918;2023-09-19T06:50:20;55.10;;;51.58;;
22768;SDS011;13001;51.968;5.918;2023-09-19T06:52:54;56.77;;;53.17;;
22768;SDS011;13001;51.968;5.918;2023-09-19T06:55:20;60.10;;;56.02;;
22768;SDS011;13001;51.968;5.918;2023-09-19T06:57:50;62.43;;;58.58;;
22768;SDS011;13001;51.968;5.918;2023-09-19T07:00:19;65.00;;;60.73;;
22768;SDS011;13001;51.968;5.918;2023-09-19T07:02:55;78.97;;;74.27;;
22768;SDS011;13001;51.968;5.918;2023-09-19T07:05:26;125.27;;;117.87;;
22768;SDS011;13001;51.968;5.918;2023-09-19T07:07:54;124.92;;;117.03;;
22768;SDS011;13001;51.968;5.918;2023-09-19T07:10:24;105.80;;;99.15;;
22768;SDS011;13001;51.968;5.918;2023-09-19T07:12:54;84.03;;;78.85;;
22768;SDS011;13001;51.968;5.918;2023-09-19T07:15:24;83.20;;;78.05;;
22768;SDS011;13001;51.968;5.918;2023-09-19T07:17:52;79.27;;;74.27;;
22768;SDS011;13001;51.968;5.918;2023-09-19T07:20:22;71.40;;;66.45;;
22768;SDS011;13001;51.968;5.918;2023-09-19T07:22:55;80.47;;;75.08;;
22768;SDS011;13001;51.968;5.918;2023-09-19T07:25:25;96.00;;;89.90;;
22768;SDS011;13001;51.968;5.918;2023-09-19T07:27:56;99.97;;;93.52;;
22768;SDS011;13001;51.968;5.918;2023-09-19T07:30:26;107.72;;;100.55;;
22768;SDS011;13001;51.968;5.918;2023-09-19T07:35:21;79.37;;;74.70;;
22768;SDS011;13001;51.968;5.918;2023-09-19T07:37:49;56.68;;;52.78;;
22768;SDS011;13001;51.968;5.918;2023-09-19T07:42:46;35.08;;;32.83;;
22768;SDS011;13001;51.968;5.918;2023-09-19T07:45:13;21.75;;;20.27;;
22768;SDS011;13001;51.968;5.918;2023-09-19T07:47:50;29.00;;;27.27;;
22768;SDS011;13001;51.968;5.918;2023-09-19T07:50:19;20.57;;;19.02;;
22768;SDS011;13001;51.968;5.918;2023-09-19T07:52:47;29.02;;;27.10;;
22768;SDS011;13001;51.968;5.918;2023-09-19T07:55:17;17.07;;;15.58;;
22768;SDS011;13001;51.968;5.918;2023-09-19T07:57:46;17.55;;;16.05;;
22768;SDS011;13001;51.968;5.918;2023-09-19T08:00:15;19.12;;;17.42;;
22768;SDS011;13001;51.968;5.918;2023-09-19T08:02:43;20.17;;;18.82;;
22768;SDS011;13001;51.968;5.918;2023-09-19T08:07:38;18.02;;;16.93;;
22768;SDS011;13001;51.968;5.918;2023-09-19T08:10:07;42.85;;;40.25;;
22768;SDS011;13001;51.968;5.918;2023-09-19T08:12:40;43.05;;;40.15;;
22768;SDS011;13001;51.968;5.918;2023-09-19T08:15:18;44.40;;;41.18;;
22768;SDS011;13001;51.968;5.918;2023-09-19T08:17:46;53.60;;;50.30;;
22768;SDS011;13001;51.968;5.918;2023-09-19T10:59:20;26.70;;;24.75;;
22768;SDS011;13001;51.968;5.918;2023-09-19T11:01:50;43.08;;;39.98;;
22768;SDS011;13001;51.968;5.918;2023-09-19T11:04:21;76.72;;;71.72;;
22768;SDS011;13001;51.968;5.918;2023-09-19T11:07:09;61.25;;;57.48;;
22768;SDS011;13001;51.968;5.918;2023-09-19T11:09:53;75.70;;;70.87;;
22768;SDS011;13001;51.968;5.918;2023-09-19T11:15:02;134.20;;;125.97;;
22768;SDS011;13001;51.968;5.918;2023-09-19T11:17:38;104.15;;;97.82;;
22768;SDS011;13001;51.968;5.918;2023-09-19T11:30:38;68.70;;;64.33;;
22768;SDS011;13001;51.968;5.918;2023-09-19T11:33:17;94.55;;;88.82;;
22768;SDS011;13001;51.968;5.918;2023-09-19T11:36:04;78.20;;;73.50;;
22768;SDS011;13001;51.968;5.918;2023-09-19T11:46:33;92.67;;;87.17;;
22768;SDS011;13001;51.968;5.918;2023-09-19T11:49:07;89.70;;;83.97;;
22768;SDS011;13001;51.968;5.918;2023-09-19T11:51:40;88.22;;;82.97;;
22768;SDS011;13001;51.968;5.918;2023-09-19T11:54:10;73.97;;;69.40;;
22768;SDS011;13001;51.968;5.918;2023-09-19T11:56:43;80.83;;;76.02;;
22768;SDS011;13001;51.968;5.918;2023-09-19T11:59:13;88.90;;;83.47;;
22768;SDS011;13001;51.968;5.918;2023-09-19T12:01:52;70.52;;;65.75;;
22768;SDS011;13001;51.968;5.918;2023-09-19T12:04:42;84.45;;;79.65;;
22768;SDS011;13001;51.968;5.918;2023-09-19T12:07:14;71.67;;;67.35;;
22768;SDS011;13001;51.968;5.918;2023-09-19T12:09:43;74.27;;;69.42;;
22768;SDS011;13001;51.968;5.918;2023-09-19T12:12:22;69.57;;;65.47;;
22768;SDS011;13001;51.968;5.918;2023-09-19T12:14:53;69.45;;;65.35;;
22768;SDS011;13001;51.968;5.918;2023-09-19T12:17:23;90.72;;;85.07;;
22768;SDS011;13001;51.968;5.918;2023-09-19T12:19:53;65.15;;;61.33;;
22768;SDS011;13001;51.968;5.918;2023-09-19T12:22:22;71.87;;;67.67;;
22768;SDS011;13001;51.968;5.918;2023-09-19T12:24:51;78.47;;;73.83;;
22768;SDS011;13001;51.968;5.918;2023-09-19T12:27:20;59.88;;;56.20;;
22768;SDS011;13001;51.968;5.918;2023-09-19T12:29:48;92.15;;;86.80;;
22768;SDS011;13001;51.968;5.918;2023-09-19T12:32:18;63.90;;;59.95;;
22768;SDS011;13001;51.968;5.918;2023-09-19T12:34:51;92.22;;;86.67;;
22768;SDS011;13001;51.968;5.918;2023-09-19T12:37:21;98.63;;;92.93;;
22768;SDS011;13001;51.968;5.918;2023-09-19T12:39:51;89.15;;;83.82;;
22768;SDS011;13001;51.968;5.918;2023-09-19T12:42:25;85.42;;;80.20;;
22768;SDS011;13001;51.968;5.918;2023-09-19T12:44:53;83.95;;;78.80;;
22768;SDS011;13001;51.968;5.918;2023-09-19T12:47:25;65.15;;;61.42;;
22768;SDS011;13001;51.968;5.918;2023-09-19T12:50:12;59.30;;;55.78;;
22768;SDS011;13001;51.968;5.918;2023-09-19T12:52:43;54.58;;;50.67;;
22768;SDS011;13001;51.968;5.918;2023-09-19T12:55:20;84.07;;;79.20;;
22768;SDS011;13001;51.968;5.918;2023-09-19T13:00:37;129.57;;;122.17;;
22768;SDS011;13001;51.968;5.918;2023-09-19T13:05:49;127.25;;;119.87;;
22768;SDS011;13001;51.968;5.918;2023-09-19T13:08:30;36.33;;;34.27;;
22768;SDS011;13001;51.968;5.918;2023-09-19T13:10:59;32.53;;;30.52;;
22768;SDS011;13001;51.968;5.918;2023-09-19T13:13:33;29.87;;;28.17;;
22768;SDS011;13001;51.968;5.918;2023-09-19T13:16:02;30.68;;;28.90;;
22768;SDS011;13001;51.968;5.918;2023-09-19T13:18:44;42.50;;;39.35;;
22768;SDS011;13001;51.968;5.918;2023-09-19T13:21:29;28.20;;;26.37;;
22768;SDS011;13001;51.968;5.918;2023-09-19T13:24:21;28.92;;;27.02;;
22768;SDS011;13001;51.968;5.918;2023-09-19T13:26:51;30.25;;;28.42;;
22768;SDS011;13001;51.968;5.918;2023-09-19T13:29:19;37.65;;;35.45;;
22768;SDS011;13001;51.968;5.918;2023-09-19T13:31:52;34.25;;;32.33;;
22768;SDS011;13001;51.968;5.918;2023-09-19T13:34:19;41.02;;;38.58;;
22768;SDS011;13001;51.968;5.918;2023-09-19T13:36:46;37.98;;;35.78;;
22768;SDS011;13001;51.968;5.918;2023-09-19T13:39:15;37.88;;;35.25;;
22768;SDS011;13001;51.968;5.918;2023-09-19T13:41:49;32.42;;;30.48;;
22768;SDS011;13001;51.968;5.918;2023-09-19T13:44:17;38.05;;;35.52;;
22768;SDS011;13001;51.968;5.918;2023-09-19T13:46:45;43.23;;;40.63;;
22768;SDS011;13001;51.968;5.918;2023-09-19T13:49:13;45.90;;;43.10;;
22768;SDS011;13001;51.968;5.918;2023-09-19T13:51:41;49.27;;;46.28;;
22768;SDS011;13001;51.968;5.918;2023-09-19T13:54:09;49.10;;;45.58;;
22768;SDS011;13001;51.968;5.918;2023-09-19T13:56:37;47.90;;;45.23;;
22768;SDS011;13001;51.968;5.918;2023-09-19T13:59:05;48.92;;;45.95;;
22768;SDS011;13001;51.968;5.918;2023-09-19T14:01:32;52.03;;;49.18;;
22768;SDS011;13001;51.968;5.918;2023-09-19T14:04:00;55.75;;;52.50;;
22768;SDS011;13001;51.968;5.918;2023-09-19T14:06:28;58.25;;;54.58;;
22768;SDS011;13001;51.968;5.918;2023-09-19T14:08:55;65.42;;;61.75;;
22768;SDS011;13001;51.968;5.918;2023-09-19T14:11:23;57.33;;;53.73;;
22768;SDS011;13001;51.968;5.918;2023-09-19T14:13:52;108.37;;;101.33;;
22768;SDS011;13001;51.968;5.918;2023-09-19T14:16:21;50.05;;;47.10;;
22768;SDS011;13001;51.968;5.918;2023-09-19T14:18:50;52.98;;;49.88;;
22768;SDS011;13001;51.968;5.918;2023-09-19T14:21:18;42.70;;;39.80;;
22768;SDS011;13001;51.968;5.918;2023-09-19T14:23:45;42.55;;;40.15;;
22768;SDS011;13001;51.968;5.918;2023-09-19T14:26:15;42.15;;;39.65;;
22768;SDS011;13001;51.968;5.918;2023-09-19T14:28:44;35.83;;;33.95;;
22768;SDS011;13001;51.968;5.918;2023-09-19T14:31:11;45.10;;;42.43;;
22768;SDS011;13001;51.968;5.918;2023-09-19T14:33:40;35.95;;;33.88;;
22768;SDS011;13001;51.968;5.918;2023-09-19T14:36:09;36.48;;;34.35;;
22768;SDS011;13001;51.968;5.918;2023-09-19T14:38:37;37.65;;;35.60;;
22768;SDS011;13001;51.968;5.918;2023-09-19T14:41:05;39.15;;;36.58;;
22768;SDS011;13001;51.968;5.918;2023-09-19T14:43:33;51.98;;;48.95;;
22768;SDS011;13001;51.968;5.918;2023-09-19T14:46:06;47.53;;;44.13;;
22768;SDS011;13001;51.968;5.918;2023-09-19T14:48:30;48.87;;;45.98;;
22768;SDS011;13001;51.968;5.918;2023-09-19T14:51:07;52.43;;;49.00;;
22768;SDS011;13001;51.968;5.918;2023-09-19T14:53:30;102.12;;;94.87;;
22768;SDS011;13001;51.968;5.918;2023-09-19T14:56:02;54.03;;;50.80;;
22768;SDS011;13001;51.968;5.918;2023-09-19T14:58:31;55.20;;;51.85;;
22768;SDS011;13001;51.968;5.918;2023-09-19T15:01:11;215.27;;;202.20;;
22768;SDS011;13001;51.968;5.918;2023-09-19T15:03:40;62.35;;;58.45;;
22768;SDS011;13001;51.968;5.918;2023-09-19T15:06:09;66.25;;;62.48;;
22768;SDS011;13001;51.968;5.918;2023-09-19T15:08:40;68.87;;;64.85;;
22768;SDS011;13001;51.968;5.918;2023-09-19T15:11:11;69.40;;;64.95;;
22768;SDS011;13001;51.968;5.918;2023-09-19T15:13:41;68.02;;;64.15;;
22768;SDS011;13001;51.968;5.918;2023-09-19T15:16:09;69.50;;;65.37;;
22768;SDS011;13001;51.968;5.918;2023-09-19T15:18:44;104.60;;;98.00;;
22768;SDS011;13001;51.968;5.918;2023-09-19T15:21:09;74.67;;;70.10;;
22768;SDS011;13001;51.968;5.918;2023-09-19T15:23:40;87.65;;;82.15;;
22768;SDS011;13001;51.968;5.918;2023-09-19T15:26:09;89.72;;;84.55;;
22768;SDS011;13001;51.968;5.918;2023-09-19T15:28:38;87.47;;;82.22;;
22768;SDS011;13001;51.968;5.918;2023-09-19T15:31:14;99.15;;;93.15;;
22768;SDS011;13001;51.968;5.918;2023-09-19T15:33:41;104.03;;;97.75;;
22768;SDS011;13001;51.968;5.918;2023-09-19T15:36:10;104.58;;;97.92;;
22768;SDS011;13001;51.968;5.918;2023-09-19T15:41:31;108.57;;;102.10;;
22768;SDS011;13001;51.968;5.918;2023-09-19T15:44:01;105.97;;;99.58;;
22768;SDS011;13001;51.968;5.918;2023-09-19T15:46:30;106.95;;;100.40;;
22768;SDS011;13001;51.968;5.918;2023-09-19T15:49:03;104.92;;;98.50;;
22768;SDS011;13001;51.968;5.918;2023-09-19T15:51:31;97.78;;;91.92;;
22768;SDS011;13001;51.968;5.918;2023-09-19T15:53:59;101.38;;;95.35;;
22768;SDS011;13001;51.968;5.918;2023-09-19T15:56:28;107.43;;;101.12;;
22768;SDS011;13001;51.968;5.918;2023-09-19T15:58:55;110.32;;;103.60;;
22768;SDS011;13001;51.968;5.918;2023-09-19T16:01:23;117.20;;;110.12;;
22768;SDS011;13001;51.968;5.918;2023-09-19T16:03:52;114.95;;;107.95;;
22768;SDS011;13001;51.968;5.918;2023-09-19T16:06:27;117.30;;;110.22;;
22768;SDS011;13001;51.968;5.918;2023-09-19T16:08:57;117.85;;;110.68;;
22768;SDS011;13001;51.968;5.918;2023-09-19T16:11:26;127.00;;;119.08;;
22768;SDS011;13001;51.968;5.918;2023-09-19T16:13:54;118.10;;;111.00;;
22768;SDS011;13001;51.968;5.918;2023-09-19T16:16:23;122.65;;;115.22;;
22768;SDS011;13001;51.968;5.918;2023-09-19T16:18:54;123.80;;;116.28;;
22768;SDS011;13001;51.968;5.918;2023-09-19T16:21:25;120.05;;;112.83;;
22768;SDS011;13001;51.968;5.918;2023-09-19T16:23:54;128.30;;;120.37;;
22768;SDS011;13001;51.968;5.918;2023-09-19T16:26:24;129.10;;;121.25;;
22768;SDS011;13001;51.968;5.918;2023-09-19T16:28:52;131.15;;;123.10;;
22768;SDS011;13001;51.968;5.918;2023-09-19T16:31:23;124.33;;;116.77;;
22768;SDS011;13001;51.968;5.918;2023-09-19T16:33:52;125.92;;;117.93;;
22768;SDS011;13001;51.968;5.918;2023-09-19T16:36:20;125.45;;;117.67;;
22768;SDS011;13001;51.968;5.918;2023-09-19T16:38:50;131.10;;;123.20;;
22768;SDS011;13001;51.968;5.918;2023-09-19T16:41:18;137.50;;;129.07;;
22768;SDS011;13001;51.968;5.918;2023-09-19T16:43:46;135.40;;;127.22;;
22768;SDS011;13001;51.968;5.918;2023-09-19T16:46:14;135.07;;;126.82;;
22768;SDS011;13001;51.968;5.918;2023-09-19T16:48:43;127.60;;;119.87;;
22768;SDS011;13001;51.968;5.918;2023-09-19T16:51:12;132.75;;;124.67;;
22768;SDS011;13001;51.968;5.918;2023-09-19T16:53:41;129.60;;;121.70;;
22768;SDS011;13001;51.968;5.918;2023-09-19T16:56:12;131.30;;;123.25;;
22768;SDS011;13001;51.968;5.918;2023-09-19T16:58:42;144.55;;;135.97;;
22768;SDS011;13001;51.968;5.918;2023-09-19T17:01:12;133.05;;;124.87;;
22768;SDS011;13001;51.968;5.918;2023-09-19T17:03:42;126.25;;;118.62;;
22768;SDS011;13001;51.968;5.918;2023-09-19T17:06:10;129.40;;;121.37;;
22768;SDS011;13001;51.968;5.918;2023-09-19T17:08:41;238.45;;;223.87;;
22768;SDS011;13001;51.968;5.918;2023-09-19T17:11:11;224.47;;;210.38;;
22768;SDS011;13001;51.968;5.918;2023-09-19T17:13:46;252.00;;;236.37;;
22768;SDS011;13001;51.968;5.918;2023-09-19T17:16:16;253.05;;;237.45;;
22768;SDS011;13001;51.968;5.918;2023-09-19T17:18:46;276.27;;;259.30;;
22768;SDS011;13001;51.968;5.918;2023-09-19T17:21:19;268.70;;;252.35;;
22768;SDS011;13001;51.968;5.918;2023-09-19T17:23:46;277.07;;;260.23;;
22768;SDS011;13001;51.968;5.918;2023-09-19T17:26:14;258.02;;;242.37;;
22768;SDS011;13001;51.968;5.918;2023-09-19T17:28:49;302.85;;;284.25;;
22768;SDS011;13001;51.968;5.918;2023-09-19T17:31:18;305.92;;;287.05;;
22768;SDS011;13001;51.968;5.918;2023-09-19T17:33:48;241.75;;;226.98;;
22768;SDS011;13001;51.968;5.918;2023-09-19T17:36:18;259.80;;;244.25;;
22768;SDS011;13001;51.968;5.918;2023-09-19T17:38:55;213.05;;;199.90;;
22768;SDS011;13001;51.968;5.918;2023-09-19T17:41:21;209.33;;;196.63;;
22768;SDS011;13001;51.968;5.918;2023-09-19T17:43:55;224.82;;;211.47;;
22768;SDS011;13001;51.968;5.918;2023-09-19T17:46:24;200.38;;;188.42;;
22768;SDS011;13001;51.968;5.918;2023-09-19T17:48:55;196.23;;;184.37;;